Time;durP1;ratioP1;P1;durP2;ratioP2;P2;SDS_P1;SDS_P2;PMS_P1;PMS_P2;Temp;Humidity;BMP_temperature;BMP_pressure;BME280_temperature;BME280_humidity;BME280_pressure;Samples;Min_cycle;Max_cycle;Signal;HPM_P1;HPM_P2
2024/04/15 00:00:13;;;;;;;4.90;2.30;;;;;;;12.69;51.60;98928.63;103206;1296;545503;-80
2024/04/15 00:03:46;;;;;;;4.60;2.60;;;;;;;12.68;51.78;98922.84;103333;1292;545363;-79
2024/04/15 00:07:28;;;;;;;5.40;2.10;;;;;;;12.65;51.84;98909.69;103556;1292;545023;-80
2024/04/15 00:11:07;;;;;;;4.20;2.00;;;;;;;12.62;51.93;98891.66;103088;1295;544978;-81
2024/04/15 00:14:46;;;;;;;4.30;2.30;;;;;;;12.56;52.22;98881.86;103440;1292;545753;-80
2024/04/15 00:18:21;;;;;;;2.80;2.10;;;;;;;12.52;52.20;98871.50;103352;1295;544873;-79
2024/04/15 00:21:59;;;;;;;3.10;2.00;;;;;;;12.52;52.40;98854.95;103425;1292;544869;-77
2024/04/15 00:25:34;;;;;;;4.20;1.90;;;;;;;12.44;52.48;98848.95;103172;1295;545401;-77
2024/04/15 00:29:17;;;;;;;3.20;2.00;;;;;;;12.39;52.47;98851.77;103227;1293;544983;-77
2024/04/15 00:32:55;;;;;;;4.10;1.90;;;;;;;12.41;52.57;98866.08;103186;1293;545453;-77
2024/04/15 00:36:29;;;;;;;5.80;2.40;;;;;;;12.45;52.73;98863.38;103179;1295;544922;-78
2024/04/15 00:40:11;;;;;;;5.70;2.40;;;;;;;12.44;53.15;98857.96;103093;1301;545744;-76
2024/04/15 00:43:47;;;;;;;4.90;2.00;;;;;;;12.42;53.31;98850.31;103129;1296;545428;-76
2024/04/15 00:47:26;;;;;;;3.10;2.10;;;;;;;12.44;53.38;98848.41;103034;1294;544791;-76
2024/04/15 00:51:11;;;;;;;5.30;2.00;;;;;;;12.45;53.27;98843.91;103023;1295;545315;-76
2024/04/15 00:54:48;;;;;;;2.50;2.10;;;;;;;12.48;53.18;98828.20;103118;1295;545038;-77
2024/04/15 00:58:24;;;;;;;3.70;1.60;;;;;;;12.50;53.33;98815.71;103144;1295;544762;-76
2024/04/15 01:02:07;;;;;;;4.70;2.00;;;;;;;12.51;53.25;98809.33;103041;1306;545904;-76
2024/04/15 01:05:43;;;;;;;4.30;2.10;;;;;;;12.54;53.18;98799.81;103146;1295;544642;-78
2024/04/15 01:09:23;;;;;;;5.00;2.00;;;;;;;12.56;53.41;98793.31;103064;1295;545061;-76
2024/04/15 01:12:58;;;;;;;3.00;1.80;;;;;;;12.59;53.44;98787.64;102976;1295;544996;-76
2024/04/15 01:16:39;;;;;;;3.20;1.80;;;;;;;12.62;53.36;98791.83;103172;1293;544929;-76
2024/04/15 01:20:12;;;;;;;4.80;2.30;;;;;;;12.64;53.58;98785.20;103115;1298;544930;-76
2024/04/15 01:23:59;;;;;;;3.40;2.30;;;;;;;12.59;53.63;98780.38;103102;1295;545464;-76
2024/04/15 01:27:32;;;;;;;2.70;1.80;;;;;;;12.61;53.74;98774.45;103164;1295;545544;-75
2024/04/15 01:31:07;;;;;;;4.10;2.10;;;;;;;12.60;53.74;98771.34;103239;1298;544820;-79
2024/04/15 01:34:49;;;;;;;4.40;2.00;;;;;;;12.61;53.62;98766.14;103441;1293;545809;-79
2024/04/15 01:38:25;;;;;;;2.70;1.70;;;;;;;12.61;53.67;98773.21;103427;1296;545560;-77
2024/04/15 01:42:07;;;;;;;2.50;1.70;;;;;;;12.62;53.70;98774.38;103379;1298;545536;-78
2024/04/15 01:45:45;;;;;;;4.00;1.80;;;;;;;12.62;53.69;98775.75;103174;1292;545269;-78
2024/04/15 01:49:20;;;;;;;5.70;2.10;;;;;;;12.64;53.84;98769.98;103201;1295;544894;-77
2024/04/15 01:53:07;;;;;;;5.00;2.30;;;;;;;12.66;53.74;98769.84;103176;1295;545005;-80
2024/04/15 01:56:39;;;;;;;3.80;1.40;;;;;;;12.65;53.81;98749.95;103039;1295;544773;-80
2024/04/15 02:00:17;;;;;;;3.50;1.60;;;;;;;12.63;53.81;98728.40;103153;1295;544964;-81
2024/04/15 02:03:57;;;;;;;3.00;1.40;;;;;;;12.57;53.72;98715.44;103442;1292;544868;-79
2024/04/15 02:07:36;;;;;;;3.30;1.60;;;;;;;12.50;53.71;98713.06;103439;1310;545955;-76
2024/04/15 02:11:09;;;;;;;5.70;1.90;;;;;;;12.52;54.03;98712.25;103186;1293;545723;-74
2024/04/15 02:14:52;;;;;;;3.20;1.70;;;;;;;12.52;54.00;98718.40;103156;1296;544785;-74
2024/04/15 02:18:29;;;;;;;4.30;1.80;;;;;;;12.48;54.07;98714.48;102970;1295;545166;-75
2024/04/15 02:22:06;;;;;;;5.00;2.00;;;;;;;12.42;54.46;98717.38;103113;1294;544720;-75
2024/04/15 02:25:44;;;;;;;2.60;1.70;;;;;;;12.33;54.49;98712.52;102977;1295;545426;-75
2024/04/15 02:29:23;;;;;;;3.70;2.00;;;;;;;12.31;54.46;98697.46;103029;1295;544883;-74
2024/04/15 02:32:58;;;;;;;5.90;2.20;;;;;;;12.37;54.53;98675.52;103197;1298;544786;-73
2024/04/15 02:36:40;;;;;;;5.60;1.90;;;;;;;12.44;54.70;98672.02;103203;1292;545232;-74
2024/04/15 02:40:17;;;;;;;6.40;2.40;;;;;;;12.44;54.59;98667.80;103141;1292;544963;-74
2024/04/15 02:43:57;;;;;;;4.50;1.90;;;;;;;12.37;54.66;98660.93;103750;1286;544954;-75
2024/04/15 02:47:33;;;;;;;3.90;1.80;;;;;;;12.36;54.90;98651.09;102956;1296;544801;-74
2024/04/15 02:51:08;;;;;;;4.80;2.10;;;;;;;12.43;54.64;98637.94;102978;1294;545787;-75
2024/04/15 02:54:52;;;;;;;4.90;1.60;;;;;;;12.47;54.70;98643.61;103323;1296;545124;-75
2024/04/15 02:58:29;;;;;;;4.20;1.60;;;;;;;12.44;54.58;98648.56;104028;1285;545867;-73
2024/04/15 03:02:04;;;;;;;4.00;1.70;;;;;;;12.46;54.62;98633.62;103232;1295;544843;-74
2024/04/15 03:05:45;;;;;;;6.50;1.40;;;;;;;12.46;54.44;98649.16;103206;1298;544843;-74
2024/04/15 03:09:26;;;;;;;2.90;1.40;;;;;;;12.27;54.16;98647.29;103072;1295;544680;-75
2024/04/15 03:13:03;;;;;;;4.30;1.20;;;;;;;12.13;54.10;98647.91;103498;1295;544927;-75
2024/04/15 03:16:42;;;;;;;3.90;1.80;;;;;;;11.97;54.03;98658.35;103201;1299;544722;-75
2024/04/15 03:20:14;;;;;;;3.60;1.50;;;;;;;11.93;54.67;98652.05;103399;1294;544728;-74
2024/04/15 03:23:56;;;;;;;4.00;1.80;;;;;;;11.89;53.90;98640.52;103301;1297;544902;-76
2024/04/15 03:27:36;;;;;;;4.30;1.80;;;;;;;11.70;54.08;98646.02;103085;1301;545482;-74
2024/04/15 03:31:11;;;;;;;3.10;1.40;;;;;;;11.55;54.35;98630.95;103089;1301;544790;-73
2024/04/15 03:34:47;;;;;;;5.60;1.30;;;;;;;11.51;55.07;98633.36;103201;1296;545127;-74
2024/04/15 03:38:49;;;;;;;2.80;1.50;;;;;;;11.49;54.81;98616.02;103248;1297;549455;-76
2024/04/15 03:42:06;;;;;;;3.30;1.40;;;;;;;11.45;55.47;98626.11;103148;1292;544701;-76
2024/04/15 03:45:42;;;;;;;3.10;1.40;;;;;;;11.35;55.17;98613.24;103161;1292;545305;-76
2024/04/15 03:49:26;;;;;;;4.20;1.90;;;;;;;11.17;55.15;98624.77;103188;1295;545002;-74
2024/04/15 03:53:02;;;;;;;3.70;1.80;;;;;;;11.04;55.32;98632.79;103127;1294;544893;-75
2024/04/15 03:56:39;;;;;;;4.90;1.80;;;;;;;11.00;55.40;98651.86;103367;1293;544813;-77
2024/04/15 04:00:17;;;;;;;2.70;2.20;;;;;;;11.03;55.91;98680.06;102940;1295;545512;-76
2024/04/15 04:03:56;;;;;;;4.50;1.80;;;;;;;11.10;55.94;98687.50;103851;1301;544979;-76
2024/04/15 04:07:35;;;;;;;3.80;1.70;;;;;;;11.18;56.32;98693.36;103770;1291;545464;-76
2024/04/15 04:11:09;;;;;;;4.50;2.10;;;;;;;11.22;56.78;98716.69;103166;1295;544825;-76
2024/04/15 04:14:49;;;;;;;3.00;1.80;;;;;;;11.24;56.88;98683.25;103226;1292;544881;-77
2024/04/15 04:18:31;;;;;;;6.70;2.70;;;;;;;11.27;57.50;98677.64;103277;1297;545359;-75
2024/04/15 04:22:10;;;;;;;7.40;2.80;;;;;;;11.26;57.81;98681.58;103443;1293;544602;-77
2024/04/15 04:25:48;;;;;;;5.70;2.70;;;;;;;11.23;58.11;98669.41;103231;1296;545105;-77
2024/04/15 04:29:24;;;;;;;5.40;2.40;;;;;;;11.20;58.31;98664.15;103446;1293;544922;-75
2024/04/15 04:33:13;;;;;;;5.20;2.60;;;;;;;11.16;58.75;98695.42;103141;1298;546067;-77
2024/04/15 04:36:37;;;;;;;4.10;3.20;;;;;;;11.16;58.87;98720.41;103733;1296;544812;-77
2024/04/15 04:40:21;;;;;;;5.90;2.70;;;;;;;11.08;58.83;98752.03;103019;1298;544826;-77
2024/04/15 04:43:57;;;;;;;7.40;2.80;;;;;;;11.02;59.33;98812.58;103181;1296;544853;-77
2024/04/15 04:47:35;;;;;;;6.20;2.20;;;;;;;10.97;59.43;98794.42;103017;1294;545281;-78
2024/04/15 04:51:14;;;;;;;6.10;2.30;;;;;;;10.91;59.78;98803.08;103400;1292;545118;-77
2024/04/15 04:54:51;;;;;;;5.00;2.30;;;;;;;10.89;59.86;98781.91;103233;1295;545123;-78
2024/04/15 04:58:28;;;;;;;4.00;2.10;;;;;;;10.90;60.27;98782.20;103453;1293;544979;-79
2024/04/15 05:02:05;;;;;;;5.60;2.20;;;;;;;10.73;60.47;98777.74;103699;1293;544865;-84
2024/04/15 05:05:47;;;;;;;4.20;2.10;;;;;;;10.63;60.59;98784.02;103545;1292;546601;-80
2024/04/15 05:09:23;;;;;;;5.50;2.10;;;;;;;10.52;60.58;98770.38;104049;1288;544746;-82
2024/04/15 05:12:59;;;;;;;6.70;2.40;;;;;;;10.35;60.66;98765.04;103805;1292;545339;-81
2024/04/15 05:16:36;;;;;;;8.10;2.90;;;;;;;10.23;60.77;98748.00;103755;1292;544651;-81
2024/04/15 05:20:12;;;;;;;7.10;2.80;;;;;;;10.16;61.07;98746.27;103545;1295;544780;-79
2024/04/15 06:05:19;;;;;;;7.60;3.10;;;;;;;10.88;60.58;98702.29;103629;1296;544996;-82
2024/04/15 06:09:03;;;;;;;11.00;3.80;;;;;;;10.68;60.76;98679.73;103423;1308;545030;-82
2024/04/15 06:12:40;;;;;;;7.20;3.60;;;;;;;10.65;61.45;98702.27;104642;1292;544703;-85
2024/04/15 06:26:47;;;;;;;7.20;2.90;;;;;;;11.02;61.12;98697.33;105713;1288;554001;-89
2024/04/15 06:29:36;;;;;;;9.40;3.70;;;;;;;10.94;60.88;98699.05;105198;1292;545677;-90
2024/04/15 06:33:13;;;;;;;10.30;2.50;;;;;;;10.79;61.35;98704.07;104979;1296;544863;-88
2024/04/15 06:36:48;;;;;;;8.20;3.40;;;;;;;10.67;61.32;98709.34;105093;1295;545280;-81
2024/04/15 06:40:32;;;;;;;9.90;3.10;;;;;;;10.55;61.44;98688.11;105420;1292;544919;-89
2024/04/15 06:44:12;;;;;;;6.70;3.40;;;;;;;10.38;61.49;98717.60;105655;1289;545440;-90
2024/04/15 06:47:53;;;;;;;4.50;2.80;;;;;;;10.33;61.86;98675.55;105127;1295;548062;-89
2024/04/15 06:51:22;;;;;;;6.60;2.70;;;;;;;10.31;61.94;98707.63;105417;1295;545204;-90
2024/04/15 06:55:05;;;;;;;20.20;5.10;;;;;;;10.32;62.27;98677.56;105741;1294;544995;-88
2024/04/15 06:58:48;;;;;;;14.10;3.50;;;;;;;10.18;62.42;98690.69;105112;1293;544858;-78
2024/04/15 07:02:26;;;;;;;5.60;2.90;;;;;;;10.08;62.79;98690.54;105063;1295;544967;-91
2024/04/15 07:06:05;;;;;;;14.20;4.00;;;;;;;10.08;62.93;98665.08;105210;1298;545737;-88
2024/04/15 07:09:39;;;;;;;9.40;3.60;;;;;;;10.09;62.50;98668.88;105189;1294;544821;-82
2024/04/15 07:13:18;;;;;;;22.60;4.40;;;;;;;9.85;62.13;98671.83;105122;1294;544904;-86
2024/04/15 07:17:00;;;;;;;15.10;4.10;;;;;;;9.59;62.37;98668.05;105179;1295;547614;-86
2024/04/15 07:20:35;;;;;;;11.20;3.70;;;;;;;9.48;62.68;98678.34;105721;1291;545069;-85
2024/04/15 07:24:10;;;;;;;12.20;3.40;;;;;;;9.41;62.80;98677.15;105365;1295;545185;-92
2024/04/15 07:27:49;;;;;;;18.10;4.20;;;;;;;9.18;62.70;98677.72;105910;1297;545505;-90
2024/04/15 07:31:34;;;;;;;24.10;4.80;;;;;;;8.94;62.99;98671.85;105510;1295;545486;-90
2024/04/15 07:35:10;;;;;;;10.70;4.10;;;;;;;8.84;63.38;98666.27;105429;1295;544729;-92
2024/04/15 07:38:46;;;;;;;7.00;3.10;;;;;;;8.85;63.46;98660.73;105529;1293;544783;-93
2024/04/15 07:42:29;;;;;;;8.20;3.20;;;;;;;8.83;63.44;98663.34;105159;1295;546036;-93
2024/04/15 07:46:10;;;;;;;7.00;2.90;;;;;;;8.77;63.61;98659.23;105141;1292;544790;-93
2024/04/15 07:49:41;;;;;;;5.40;2.70;;;;;;;8.71;63.64;98664.84;105183;1294;545080;-93
2024/04/15 07:53:18;;;;;;;8.40;2.90;;;;;;;8.67;64.18;98661.56;105636;1292;544812;-92
2024/04/15 07:56:59;;;;;;;9.50;3.20;;;;;;;8.61;64.30;98670.80;106244;1286;545030;-92
2024/04/15 08:00:32;;;;;;;5.90;2.90;;;;;;;8.62;64.53;98659.19;105663;1294;545165;-92
2024/04/15 08:04:11;;;;;;;5.40;3.60;;;;;;;8.77;64.70;98660.48;105282;1295;545091;-92
2024/04/15 08:18:19;;;;;;;11.30;7.50;;;;;;;8.93;64.50;98668.92;106008;1286;554084;-92
2024/04/15 08:31:40;;;;;;;7.50;3.30;;;;;;;9.55;64.49;98648.80;105986;1287;553908;-86
2024/04/15 08:34:28;;;;;;;6.20;3.50;;;;;;;9.84;64.19;98630.63;105240;1296;544749;-86
2024/04/15 08:38:10;;;;;;;14.50;3.70;;;;;;;9.89;64.72;98636.97;105284;1292;544730;-87
2024/04/15 08:41:59;;;;;;;11.00;4.30;;;;;;;10.05;64.65;98628.88;105102;1295;544921;-93
2024/04/15 08:45:50;;;;;;;14.00;8.40;;;;;;;10.22;64.45;98629.30;104925;1294;558305;-93
2024/04/15 08:49:02;;;;;;;8.00;4.30;;;;;;;10.33;64.43;98630.02;104449;1294;545435;-92
2024/04/15 08:52:52;;;;;;;15.90;7.20;;;;;;;10.50;64.28;98626.19;105333;1295;544813;-91
2024/04/15 08:56:24;;;;;;;12.30;6.30;;;;;;;10.69;64.29;98617.63;105259;1294;544805;-87
2024/04/15 09:00:01;;;;;;;12.00;4.60;;;;;;;10.97;64.17;98614.44;105407;1295;544847;-86
2024/04/15 09:14:15;;;;;;;7.70;2.90;;;;;;;11.73;63.51;98604.04;105756;1291;555247;-86
2024/04/15 09:17:05;;;;;;;15.30;3.20;;;;;;;12.04;62.93;98604.66;105165;1295;544844;-86
2024/04/15 09:20:46;;;;;;;12.00;3.20;;;;;;;12.03;62.99;98603.30;105170;1295;545287;-86
2024/04/15 09:24:40;;;;;;;30.40;5.50;;;;;;;12.04;62.83;98588.39;105570;1289;544731;-86
2024/04/15 09:28:21;;;;;;;6.50;2.80;;;;;;;12.14;62.92;98578.75;105054;1296;545049;-88
2024/04/15 09:32:07;;;;;;;11.30;4.30;;;;;;;12.22;62.68;98583.44;105304;1291;544978;-86
2024/04/15 09:35:41;;;;;;;10.40;2.70;;;;;;;12.33;62.88;98580.20;105728;1287;545680;-87
2024/04/15 09:39:28;;;;;;;8.90;3.40;;;;;;;12.42;62.60;98572.88;105156;1295;549047;-86
2024/04/15 09:42:58;;;;;;;5.80;2.90;;;;;;;12.50;62.53;98564.57;105862;1292;545014;-86
2024/04/15 09:57:26;;;;;;;9.10;3.40;;;;;;;13.21;62.57;98567.77;105827;1288;557980;-84
2024/04/15 10:00:13;;;;;;;8.80;3.40;;;;;;;13.69;61.99;98562.14;105316;1292;544805;-85
2024/04/15 10:03:50;;;;;;;70.00;8.70;;;;;;;13.79;61.77;98555.38;105183;1293;545444;-85
2024/04/15 10:07:22;;;;;;;12.70;4.10;;;;;;;13.88;61.61;98541.19;104931;1299;544814;-85
2024/04/15 10:11:06;;;;;;;17.50;4.40;;;;;;;13.94;61.41;98535.29;104095;1295;545099;-80
2024/04/15 10:14:40;;;;;;;23.10;5.10;;;;;;;13.97;61.24;98525.66;103997;1294;545441;-81
2024/04/15 10:18:44;;;;;;;12.20;3.90;;;;;;;14.10;61.25;98516.04;103870;1295;553389;-79
2024/04/15 10:22:08;;;;;;;10.10;3.80;;;;;;;14.13;60.96;98513.30;104525;1289;544839;-79
2024/04/15 10:25:39;;;;;;;9.00;3.30;;;;;;;14.15;60.92;98512.98;104523;1305;545411;-80
2024/04/15 10:29:24;;;;;;;8.10;4.00;;;;;;;14.21;60.74;98510.26;103938;1295;544797;-80
2024/04/15 10:33:02;;;;;;;8.90;3.40;;;;;;;14.27;60.69;98495.09;103783;1295;545830;-80
2024/04/15 10:36:36;;;;;;;9.40;3.90;;;;;;;14.30;60.64;98480.50;103794;1296;544796;-82
2024/04/15 10:40:18;;;;;;;8.80;3.90;;;;;;;14.44;60.15;98467.02;104220;1295;544912;-80
2024/04/15 10:43:52;;;;;;;7.20;4.40;;;;;;;14.50;60.06;98457.04;103679;1292;544772;-80
2024/04/15 10:47:28;;;;;;;5.90;3.30;;;;;;;14.63;60.07;98458.98;103801;1293;544817;-81
2024/04/15 10:51:30;;;;;;;7.00;3.50;;;;;;;14.67;59.82;98446.21;103853;1292;553377;-81
2024/04/15 10:54:46;;;;;;;8.30;4.40;;;;;;;14.71;59.60;98441.50;103609;1293;545269;-78
2024/04/15 10:58:27;;;;;;;10.60;4.30;;;;;;;14.68;59.44;98450.44;103342;1293;544797;-78
2024/04/15 11:02:10;;;;;;;9.00;3.50;;;;;;;14.65;59.50;98449.09;103438;1299;545500;-77
2024/04/15 11:05:42;;;;;;;36.30;7.40;;;;;;;14.58;59.21;98433.75;103432;1296;545043;-79
2024/04/15 11:09:47;;;;;;;6.20;3.80;;;;;;;14.52;59.33;98443.00;103381;1295;550004;-79
2024/04/15 11:13:00;;;;;;;8.10;4.00;;;;;;;14.46;59.24;98448.82;103227;1299;544874;-78
2024/04/15 11:16:46;;;;;;;13.10;5.00;;;;;;;14.44;59.15;98439.27;103360;1294;545382;-80
2024/04/15 11:30:49;;;;;;;10.10;5.40;;;;;;;14.88;59.02;98417.79;104257;1285;558559;-79
2024/04/15 11:33:38;;;;;;;9.40;6.00;;;;;;;15.07;58.91;98398.66;103637;1298;544794;-78
2024/04/15 11:37:18;;;;;;;12.10;5.50;;;;;;;15.08;58.77;98391.02;103568;1296;545886;-78
2024/04/15 11:41:00;;;;;;;25.00;5.80;;;;;;;15.13;58.66;98387.37;104748;1293;545341;-93
2024/04/15 11:44:43;;;;;;;12.20;5.50;;;;;;;15.04;58.66;98377.52;105960;1289;544783;-95
2024/04/15 11:48:16;;;;;;;9.90;6.50;;;;;;;15.04;58.60;98363.33;105131;1294;545471;-93
2024/04/15 11:51:53;;;;;;;8.70;5.00;;;;;;;15.03;58.58;98354.41;105988;1286;544818;-95
2024/04/15 11:55:29;;;;;;;10.70;5.10;;;;;;;15.13;58.55;98333.23;106113;1285;545454;-92
2024/04/15 12:09:41;;;;;;;8.80;4.70;;;;;;;15.95;58.14;98319.30;105829;1300;555569;-93
2024/04/15 12:12:33;;;;;;;6.30;3.90;;;;;;;16.30;57.59;98302.02;105157;1295;544959;-89
2024/04/15 12:16:09;;;;;;;5.00;3.00;;;;;;;16.25;57.44;98288.44;105470;1297;545330;-93
2024/04/15 12:20:03;;;;;;;5.40;3.30;;;;;;;16.34;57.57;98268.83;105389;1292;550620;-91
2024/04/15 12:23:23;;;;;;;8.30;4.70;;;;;;;16.41;57.17;98258.48;105223;1292;544911;-89
2024/04/15 12:37:28;;;;;;;9.20;4.00;;;;;;;16.85;57.11;98264.54;106463;1286;553939;-95
2024/04/15 12:40:17;;;;;;;8.50;4.10;;;;;;;16.96;56.67;98254.61;105920;1286;544949;-82
2024/04/15 12:43:54;;;;;;;5.90;3.80;;;;;;;16.96;56.75;98264.31;104004;1297;545023;-79
2024/04/15 12:47:36;;;;;;;9.50;4.10;;;;;;;17.11;56.55;98260.79;103975;1297;545290;-81
2024/04/15 13:01:40;;;;;;;15.10;5.20;;;;;;;17.78;56.15;98244.75;104688;1289;554632;-80
2024/04/15 13:04:40;;;;;;;12.10;4.30;;;;;;;18.17;55.95;98231.31;103862;1295;545524;-80
2024/04/15 13:08:16;;;;;;;7.30;4.30;;;;;;;18.19;55.61;98231.69;103866;1298;545038;-79
2024/04/15 13:12:15;;;;;;;9.30;5.00;;;;;;;18.19;55.77;98216.40;105470;1289;549275;-88
2024/04/15 13:15:36;;;;;;;6.20;4.40;;;;;;;18.13;55.32;98204.71;105110;1295;545766;-90
2024/04/15 13:19:11;;;;;;;8.50;4.40;;;;;;;18.01;55.08;98209.36;105646;1291;544872;-89
2024/04/15 13:23:00;;;;;;;9.90;4.40;;;;;;;18.00;55.23;98194.84;105334;1298;545051;-90
2024/04/15 13:26:31;;;;;;;8.50;4.80;;;;;;;18.14;55.14;98189.97;104042;1305;544751;-77
2024/04/15 13:30:13;;;;;;;7.40;4.60;;;;;;;18.24;54.73;98192.44;103478;1293;544916;-77
2024/04/15 13:33:49;;;;;;;8.60;4.60;;;;;;;18.20;54.82;98190.27;103404;1304;544999;-81
2024/04/15 13:37:35;;;;;;;10.80;7.20;;;;;;;18.05;54.56;98180.38;103608;1292;545001;-77
2024/04/15 13:41:10;;;;;;;12.20;7.40;;;;;;;17.97;54.81;98159.52;103640;1295;544943;-79
2024/04/15 13:44:50;;;;;;;8.90;4.90;;;;;;;18.02;54.47;98143.08;103520;1295;544924;-79
2024/04/15 13:48:30;;;;;;;8.20;4.60;;;;;;;17.92;54.45;98123.02;103609;1295;545333;-78
2024/04/15 13:52:12;;;;;;;8.90;4.40;;;;;;;17.83;54.43;98115.95;104250;1292;544757;-79
2024/04/15 13:55:52;;;;;;;6.60;4.80;;;;;;;17.72;54.44;98110.94;103983;1293;545674;-80
2024/04/15 13:59:27;;;;;;;10.90;5.20;;;;;;;17.73;54.33;98100.88;103909;1293;544755;-77
2024/04/15 14:03:26;;;;;;;11.60;5.80;;;;;;;17.86;54.37;98084.98;103773;1306;553254;-80
2024/04/15 14:07:04;;;;;;;6.90;4.60;;;;;;;18.00;54.21;98077.27;103555;1292;553331;-78
2024/04/15 14:10:19;;;;;;;9.60;5.90;;;;;;;17.99;54.28;98061.66;104552;1292;544952;-80
2024/04/15 14:14:02;;;;;;;7.60;5.00;;;;;;;17.91;54.35;98042.92;103947;1298;545091;-81
2024/04/15 14:17:39;;;;;;;12.30;4.30;;;;;;;17.79;54.52;98034.20;104825;1292;545429;-80
2024/04/15 14:31:50;;;;;;;8.40;5.40;;;;;;;17.62;54.84;98027.20;104515;1288;554702;-82
2024/04/15 14:34:37;;;;;;;9.00;5.40;;;;;;;17.54;54.86;98022.41;103511;1295;545556;-81
2024/04/15 14:38:14;;;;;;;7.40;5.30;;;;;;;17.65;54.87;98021.02;103679;1295;544725;-84
2024/04/15 14:41:51;;;;;;;8.20;4.90;;;;;;;17.64;54.90;98019.52;104551;1301;546011;-82
2024/04/15 14:45:30;;;;;;;8.40;5.20;;;;;;;17.52;54.70;98015.90;105507;1283;544825;-82
2024/04/15 14:49:19;;;;;;;9.30;5.70;;;;;;;17.24;54.67;98006.02;105022;1292;547966;-85
2024/04/15 14:52:45;;;;;;;11.30;3.30;;;;;;;17.21;56.28;97991.34;105354;1289;544888;-85
2024/04/15 14:56:23;;;;;;;10.20;5.70;;;;;;;17.68;57.33;97972.16;104594;1294;545239;-84
2024/04/15 15:00:15;;;;;;;9.20;4.90;;;;;;;17.78;55.90;97966.12;104828;1292;545094;-83
2024/04/15 15:03:48;;;;;;;10.70;4.90;;;;;;;17.86;56.97;97953.05;104475;1295;545567;-82
2024/04/15 15:07:30;;;;;;;9.40;5.50;;;;;;;17.89;56.84;97955.22;104574;1293;545195;-81
2024/04/15 15:11:07;;;;;;;11.60;5.40;;;;;;;17.78;56.24;97950.11;105765;1286;544984;-84
2024/04/15 15:14:50;;;;;;;9.80;5.80;;;;;;;17.75;57.76;97945.65;105320;1296;545906;-84
2024/04/15 15:18:21;;;;;;;12.80;5.80;;;;;;;17.83;57.71;97941.65;105282;1294;545427;-84
2024/04/15 15:22:13;;;;;;;11.00;6.30;;;;;;;17.92;57.52;97928.73;105254;1293;544695;-84
2024/04/15 15:25:41;;;;;;;6.50;4.50;;;;;;;17.93;58.09;97913.73;105232;1300;545110;-83
2024/04/15 15:29:19;;;;;;;12.80;6.90;;;;;;;18.02;56.63;97911.19;105437;1292;544757;-84
2024/04/15 15:33:00;;;;;;;8.10;5.40;;;;;;;17.97;57.78;97912.92;105115;1296;545802;-84
2024/04/15 15:36:34;;;;;;;6.90;4.50;;;;;;;18.11;57.85;97904.49;105050;1294;544846;-84
2024/04/15 15:40:10;;;;;;;7.10;4.20;;;;;;;18.05;56.65;97898.27;104840;1292;545415;-84
2024/04/15 15:44:14;;;;;;;7.00;3.90;;;;;;;17.85;56.41;97889.31;105541;1286;552244;-84
2024/04/15 15:47:33;;;;;;;9.20;5.40;;;;;;;17.95;57.39;97875.42;104736;1294;545286;-84
2024/04/15 15:51:10;;;;;;;10.90;5.50;;;;;;;17.96;57.11;97862.05;104998;1292;545249;-82
2024/04/15 15:54:51;;;;;;;9.40;5.50;;;;;;;18.05;57.33;97854.77;105169;1295;545746;-84
2024/04/15 15:58:44;;;;;;;9.70;4.40;;;;;;;18.15;57.15;97858.87;104889;1294;554683;-84
2024/04/15 16:02:03;;;;;;;9.70;4.90;;;;;;;18.07;57.02;97848.23;104443;1293;545011;-83
2024/04/15 16:05:47;;;;;;;7.30;4.30;;;;;;;18.06;57.36;97844.27;104640;1298;545513;-82
2024/04/15 16:09:18;;;;;;;7.00;5.50;;;;;;;17.96;56.51;97824.50;104478;1295;545075;-84
2024/04/15 16:12:53;;;;;;;13.70;6.20;;;;;;;17.67;56.92;97815.05;104642;1295;544902;-82
2024/04/15 16:16:40;;;;;;;8.50;5.00;;;;;;;17.48;56.88;97815.73;104239;1295;548170;-82
2024/04/15 16:20:13;;;;;;;8.60;4.40;;;;;;;17.28;57.66;97805.36;104739;1289;545952;-82
2024/04/15 16:23:48;;;;;;;9.60;5.20;;;;;;;17.18;57.26;97801.17;104474;1298;544619;-82
2024/04/15 16:27:48;;;;;;;10.00;7.30;;;;;;;17.19;57.54;97793.48;105432;1295;553647;-83
2024/04/15 16:31:09;;;;;;;10.80;6.20;;;;;;;16.99;57.31;97790.53;105111;1294;544913;-83
2024/04/15 16:34:46;;;;;;;8.30;4.70;;;;;;;16.95;57.34;97780.94;104285;1295;544830;-83
2024/04/15 16:38:24;;;;;;;8.30;5.60;;;;;;;16.78;57.41;97766.48;103775;1292;544864;-79
2024/04/15 16:42:00;;;;;;;9.50;6.10;;;;;;;16.70;57.31;97758.34;103541;1294;544864;-81
2024/04/15 16:45:59;;;;;;;9.70;6.60;;;;;;;16.36;57.08;97746.40;104473;1288;550168;-81
2024/04/15 16:49:19;;;;;;;8.70;7.10;;;;;;;16.13;57.35;97729.41;103626;1295;545438;-80
2024/04/15 16:52:54;;;;;;;11.00;7.30;;;;;;;15.78;57.58;97734.19;103334;1294;545214;-79
2024/04/15 16:56:31;;;;;;;17.00;11.40;;;;;;;15.53;57.75;97732.38;104237;1297;544843;-86
2024/04/15 17:00:13;;;;;;;18.70;10.60;;;;;;;15.29;58.09;97724.06;104676;1295;545020;-85
2024/04/15 17:03:50;;;;;;;16.30;9.40;;;;;;;15.03;58.23;97718.73;104575;1288;545018;-81
2024/04/15 17:07:30;;;;;;;16.90;8.90;;;;;;;14.84;58.41;97714.88;104275;1293;545043;-80
2024/04/15 17:11:04;;;;;;;16.40;8.70;;;;;;;14.65;58.69;97707.76;104170;1295;544794;-79
2024/04/15 17:14:45;;;;;;;18.80;9.50;;;;;;;14.46;58.86;97697.16;103653;1296;544900;-84
2024/04/15 17:18:30;;;;;;;25.20;15.60;;;;;;;14.24;59.10;97687.81;104031;1295;545306;-80
2024/04/15 17:22:08;;;;;;;39.00;22.80;;;;;;;14.04;59.32;97687.13;104822;1292;544947;-87
2024/04/15 17:25:44;;;;;;;26.90;17.30;;;;;;;13.91;59.64;97685.69;104973;1296;545045;-90
2024/04/15 17:29:20;;;;;;;18.10;10.90;;;;;;;13.69;59.71;97676.55;105460;1292;545401;-87
2024/04/15 17:32:57;;;;;;;20.80;11.60;;;;;;;13.52;60.02;97673.47;105289;1294;544784;-88
2024/04/15 17:36:35;;;;;;;14.90;10.90;;;;;;;13.30;60.34;97663.09;105454;1295;544976;-90
2024/04/15 17:40:13;;;;;;;14.50;10.00;;;;;;;13.12;60.56;97654.64;105367;1295;544804;-90
2024/04/15 17:43:52;;;;;;;16.60;10.90;;;;;;;12.84;60.88;97641.85;105220;1296;545426;-87
2024/04/15 17:47:27;;;;;;;13.70;10.10;;;;;;;12.64;61.16;97629.11;105098;1292;544888;-88
2024/04/15 17:51:10;;;;;;;18.50;13.00;;;;;;;12.46;61.40;97623.62;105044;1292;544764;-88
2024/04/15 17:54:42;;;;;;;27.00;16.60;;;;;;;12.25;61.92;97619.71;105204;1292;544760;-87
2024/04/15 17:58:22;;;;;;;24.70;15.00;;;;;;;12.14;62.09;97615.41;105981;1284;544700;-86
2024/04/15 18:02:07;;;;;;;20.30;14.50;;;;;;;12.07;62.25;97597.80;104901;1293;545824;-86
2024/04/15 18:05:45;;;;;;;16.90;13.40;;;;;;;12.00;62.70;97585.05;104733;1295;545482;-91
2024/04/15 18:09:24;;;;;;;22.70;15.00;;;;;;;11.93;62.90;97574.20;103578;1292;545028;-76
2024/04/15 18:13:00;;;;;;;21.10;15.50;;;;;;;11.88;62.96;97559.41;103677;1295;545361;-79
2024/04/15 18:16:38;;;;;;;24.00;14.60;;;;;;;11.85;63.13;97552.29;103749;1291;544815;-79
2024/04/15 18:20:15;;;;;;;20.50;14.70;;;;;;;11.81;63.47;97543.66;103555;1298;546262;-77
2024/04/15 18:23:55;;;;;;;24.40;16.50;;;;;;;11.75;63.35;97538.33;103556;1295;546015;-77
2024/04/15 18:27:33;;;;;;;20.90;14.90;;;;;;;11.71;63.69;97535.16;104926;1296;549230;-87
2024/04/15 18:31:09;;;;;;;22.60;15.50;;;;;;;11.65;63.81;97536.19;105073;1292;545719;-87
2024/04/15 18:34:47;;;;;;;33.40;21.40;;;;;;;11.61;64.03;97536.68;105193;1285;546909;-88
2024/04/15 18:38:26;;;;;;;27.80;18.30;;;;;;;11.56;64.10;97535.45;103521;1295;545536;-78
2024/04/15 18:42:04;;;;;;;20.90;15.90;;;;;;;11.53;64.29;97530.85;103692;1295;545078;-80
2024/04/15 18:45:40;;;;;;;18.90;15.40;;;;;;;11.48;64.19;97520.51;103593;1293;544879;-80
2024/04/15 18:49:18;;;;;;;15.50;12.70;;;;;;;11.43;64.31;97518.12;104189;1295;545370;-81
2024/04/15 18:52:56;;;;;;;14.80;12.40;;;;;;;11.36;64.50;97515.66;104509;1296;544902;-81
2024/04/15 18:56:37;;;;;;;15.50;12.80;;;;;;;11.28;64.48;97512.79;104107;1295;547900;-81